Terminal Aerodrome Forecast
Issued by NWS Pocatello, ID

Current Version | Previous Version | Text Only | Print | Product List | Glossary On
Versions: 1 2 3 4 5 6 7 8 9 10 11 12 13 14 15 16 17 18 19 20
000
FTUS45 KPIH 241120
TAFPIH
TAF
KPIH 241120Z 2412/2512 VRB06KT P6SM SCT002 SCT015
     FM241500 VRB06KT P6SM VCSH SCT025 SCT060
     FM241800 28010KT P6SM -SHRA VCTS OVC060CB
     FM250300 VRB06KT P6SM VCSH OVC080
     FM250700 VRB06KT 5SM BR SCT080=

USA.gov is the U.S. government's official web portal to all federal, state and local government web resources and services.